createdAt,value
2019-03-31T00:04:06.260Z,68.87
2019-03-31T00:09:01.970Z,72.45
2019-03-31T00:11:30.454Z,76.85
2019-03-31T00:13:58.854Z,80.28
2019-03-31T00:16:27.323Z,79.05
2019-03-31T00:18:55.653Z,79.60
2019-03-31T00:21:24.115Z,83.20
2019-03-31T00:23:52.483Z,84.65
2019-03-31T00:26:20.973Z,79.65
2019-03-31T00:28:49.363Z,84.45
2019-03-31T00:31:37.077Z,84.20
2019-03-31T00:34:05.578Z,88.12
2019-03-31T00:36:34.081Z,81.53
2019-03-31T00:39:02.576Z,83.92
2019-03-31T00:41:31.053Z,86.35
2019-03-31T00:43:59.438Z,88.27
2019-03-31T00:46:30.563Z,88.72
2019-03-31T00:48:58.927Z,84.95
2019-03-31T00:51:27.315Z,89.13
2019-03-31T00:53:55.663Z,87.72
2019-03-31T00:56:23.993Z,90.25
2019-03-31T00:58:57.261Z,96.37
2019-03-31T01:01:36.825Z,105.47
2019-03-31T01:04:05.124Z,105.60
2019-03-31T01:06:37.598Z,98.27
2019-03-31T01:09:09.106Z,107.72
2019-03-31T01:11:37.407Z,104.85
2019-03-31T01:14:05.741Z,110.12
2019-03-31T01:16:34.208Z,106.95
2019-03-31T01:19:02.656Z,109.45
2019-03-31T01:21:33.726Z,110.35
2019-03-31T01:24:10.087Z,110.50
2019-03-31T01:26:38.365Z,110.52
2019-03-31T01:29:06.954Z,116.62
2019-03-31T01:31:35.350Z,114.57
2019-03-31T01:34:03.830Z,115.05
2019-03-31T01:36:32.139Z,116.53
2019-03-31T01:39:00.438Z,109.15
2019-03-31T01:41:28.720Z,116.75
2019-03-31T01:43:57.025Z,117.87
2019-03-31T01:46:25.654Z,120.02
2019-03-31T01:48:53.983Z,115.80
2019-03-31T01:51:22.392Z,114.85
2019-03-31T01:53:50.801Z,115.35
2019-03-31T01:56:19.365Z,119.62
2019-03-31T01:58:47.692Z,119.65
2019-03-31T02:01:16.733Z,117.87
2019-03-31T02:03:45.112Z,119.65
2019-03-31T02:06:13.468Z,117.05
2019-03-31T02:08:41.836Z,121.95
2019-03-31T02:11:10.122Z,123.22
2019-03-31T02:13:38.422Z,126.78
2019-03-31T02:16:06.902Z,119.67
2019-03-31T02:18:35.205Z,119.53
2019-03-31T02:21:06.723Z,125.18
2019-03-31T02:23:35.000Z,116.55
2019-03-31T02:26:03.522Z,122.15
2019-03-31T02:28:31.836Z,121.70
2019-03-31T02:31:00.097Z,121.95
2019-03-31T02:33:28.393Z,121.85
2019-03-31T02:35:56.793Z,124.92
2019-03-31T02:38:25.067Z,118.53
2019-03-31T02:40:53.366Z,120.67
2019-03-31T02:43:22.137Z,126.67
2019-03-31T02:45:50.431Z,124.02
2019-03-31T02:48:18.703Z,125.45
2019-03-31T02:50:48.740Z,127.10
2019-03-31T02:53:17.201Z,121.22
2019-03-31T02:55:45.630Z,117.45
2019-03-31T02:58:14.358Z,118.75
2019-03-31T03:00:42.908Z,120.77
2019-03-31T03:03:11.418Z,123.42
2019-03-31T03:05:41.079Z,121.50
2019-03-31T03:08:09.790Z,119.13
2019-03-31T03:10:38.202Z,127.27
2019-03-31T03:13:12.610Z,123.20
2019-03-31T03:15:46.730Z,118.08
2019-03-31T03:18:15.026Z,121.20
2019-03-31T03:20:43.331Z,126.47
2019-03-31T03:23:11.601Z,122.58
2019-03-31T03:25:54.905Z,123.82
2019-03-31T03:28:09.967Z,125.45
2019-03-31T03:30:44.582Z,122.98
2019-03-31T03:33:16.603Z,130.55
2019-03-31T03:35:43.161Z,124.95
2019-03-31T03:38:11.533Z,125.40
2019-03-31T03:40:39.873Z,131.70
2019-03-31T03:43:14.623Z,131.57
2019-03-31T03:45:43.055Z,130.32
2019-03-31T03:48:11.358Z,127.42
2019-03-31T03:50:39.662Z,125.35
2019-03-31T03:53:07.954Z,135.45
2019-03-31T03:55:36.229Z,133.18
2019-03-31T03:58:04.606Z,133.85
2019-03-31T04:00:32.964Z,137.45
2019-03-31T04:03:01.296Z,134.52
2019-03-31T04:05:29.630Z,129.68
2019-03-31T04:07:57.916Z,133.60
2019-03-31T04:10:53.975Z,136.43
2019-03-31T04:13:22.298Z,134.12
2019-03-31T04:15:50.628Z,135.75
2019-03-31T04:18:18.930Z,130.85
2019-03-31T04:20:47.299Z,130.67
2019-03-31T04:23:15.693Z,130.27
2019-03-31T04:25:46.351Z,132.15
2019-03-31T04:28:14.656Z,129.05
2019-03-31T04:30:42.926Z,128.70
2019-03-31T04:33:11.216Z,126.58
2019-03-31T04:35:39.615Z,123.40
2019-03-31T04:38:07.951Z,125.67
2019-03-31T04:40:36.756Z,120.05
2019-03-31T04:43:05.083Z,114.65
2019-03-31T04:45:33.454Z,115.20
2019-03-31T04:48:01.797Z,115.45
2019-03-31T04:50:30.155Z,110.32
2019-03-31T04:52:58.441Z,107.30
2019-03-31T04:55:26.709Z,111.15
2019-03-31T04:57:55.073Z,104.70
2019-03-31T05:00:23.357Z,111.88
2019-03-31T05:02:51.649Z,109.75
2019-03-31T05:05:19.972Z,104.73
2019-03-31T05:07:48.266Z,104.55
2019-03-31T05:10:16.567Z,102.50
2019-03-31T05:12:44.858Z,97.17
2019-03-31T05:15:13.134Z,98.78
2019-03-31T05:17:41.415Z,98.80
2019-03-31T05:20:09.884Z,104.20
2019-03-31T05:22:38.157Z,99.15
2019-03-31T05:25:06.681Z,101.22
2019-03-31T05:27:35.024Z,93.33
2019-03-31T05:30:03.338Z,99.37
2019-03-31T05:32:31.582Z,97.25
2019-03-31T05:34:59.856Z,96.70
2019-03-31T05:37:28.138Z,98.27
2019-03-31T05:39:56.512Z,92.45
2019-03-31T05:42:24.798Z,101.25
2019-03-31T05:44:53.079Z,95.30
2019-03-31T05:47:21.398Z,93.35
2019-03-31T05:49:49.690Z,90.90
2019-03-31T05:52:18.074Z,86.15
2019-03-31T05:54:46.458Z,96.75
2019-03-31T05:57:14.727Z,93.37
2019-03-31T05:59:43.022Z,89.92
2019-03-31T06:02:11.290Z,84.95
2019-03-31T06:04:41.543Z,87.22
2019-03-31T06:07:09.969Z,83.82
2019-03-31T06:09:40.188Z,79.92
2019-03-31T06:12:08.364Z,80.40
2019-03-31T06:14:36.798Z,81.05
2019-03-31T06:17:05.218Z,81.70
2019-03-31T06:19:33.649Z,85.45
2019-03-31T06:22:02.002Z,80.40
2019-03-31T06:24:30.419Z,82.27
2019-03-31T06:26:58.831Z,79.75
2019-03-31T06:29:27.226Z,77.75
2019-03-31T06:31:55.700Z,80.60
2019-03-31T06:34:23.994Z,79.60
2019-03-31T06:36:52.350Z,79.72
2019-03-31T06:39:20.702Z,76.00
2019-03-31T06:41:49.273Z,74.05
2019-03-31T06:44:17.681Z,77.42
2019-03-31T06:46:46.087Z,76.90
2019-03-31T06:49:14.670Z,73.10
2019-03-31T06:51:43.233Z,77.95
2019-03-31T06:54:11.709Z,71.85
2019-03-31T06:59:23.224Z,77.40
2019-03-31T07:01:51.623Z,80.35
2019-03-31T07:04:20.007Z,84.05
2019-03-31T07:06:48.448Z,85.10
2019-03-31T07:09:16.843Z,79.40
2019-03-31T07:11:45.230Z,82.42
2019-03-31T07:17:17.583Z,89.67
2019-03-31T07:20:04.927Z,83.80
2019-03-31T07:22:33.474Z,91.95
2019-03-31T07:25:11.230Z,87.35
2019-03-31T07:27:43.618Z,90.70
2019-03-31T07:30:20.284Z,86.40
2019-03-31T07:33:05.974Z,83.47
2019-03-31T07:35:34.460Z,86.08
2019-03-31T07:38:02.906Z,87.47
2019-03-31T07:40:31.461Z,88.30
2019-03-31T07:43:00.042Z,83.95
2019-03-31T07:48:19.976Z,85.42
2019-03-31T07:50:48.868Z,74.03
2019-03-31T07:53:17.187Z,71.80
2019-03-31T07:55:45.544Z,63.68
2019-03-31T07:58:13.910Z,65.17
2019-03-31T08:00:42.232Z,63.60
2019-03-31T08:03:10.517Z,57.03
2019-03-31T08:05:38.834Z,57.30
2019-03-31T08:08:07.762Z,56.23
2019-03-31T08:10:36.054Z,60.05
2019-03-31T08:13:04.347Z,53.17
2019-03-31T08:15:32.666Z,55.25
2019-03-31T08:18:00.972Z,52.60
2019-03-31T08:20:29.279Z,55.75
2019-03-31T08:22:57.609Z,51.00
2019-03-31T08:25:25.917Z,50.70
2019-03-31T08:27:54.357Z,49.65
2019-03-31T08:30:22.773Z,47.67
2019-03-31T08:32:51.214Z,46.83
2019-03-31T08:35:19.498Z,44.83
2019-03-31T08:37:47.948Z,46.13
2019-03-31T08:40:16.436Z,43.23
2019-03-31T08:42:44.837Z,46.13
2019-03-31T08:45:13.226Z,44.30
2019-03-31T08:47:41.507Z,46.00
2019-03-31T08:50:12.354Z,43.60
2019-03-31T08:52:40.755Z,44.40
2019-03-31T08:55:09.397Z,41.95
2019-03-31T08:57:37.897Z,42.60
2019-03-31T09:00:10.509Z,40.75
2019-03-31T09:02:39.015Z,39.45
2019-03-31T09:05:08.140Z,38.35
2019-03-31T09:07:36.512Z,39.08
2019-03-31T09:13:11.329Z,35.20
2019-03-31T09:15:39.679Z,32.13
2019-03-31T09:18:08.104Z,31.48
2019-03-31T09:20:36.516Z,32.03
2019-03-31T09:23:05.072Z,30.55
2019-03-31T09:25:37.511Z,28.83
2019-03-31T09:28:05.977Z,35.48
2019-03-31T09:30:34.395Z,30.25
2019-03-31T09:33:02.912Z,29.20
2019-03-31T09:35:31.299Z,28.50
2019-03-31T09:37:59.768Z,25.95
2019-03-31T09:40:28.126Z,27.20
2019-03-31T09:42:56.454Z,27.75
2019-03-31T09:45:24.741Z,28.73
2019-03-31T09:48:11.985Z,27.80
2019-03-31T09:54:04.537Z,28.67
2019-03-31T10:00:19.898Z,25.52
2019-03-31T10:02:48.327Z,27.95
2019-03-31T10:08:49.824Z,26.33
2019-03-31T10:11:18.147Z,25.17
2019-03-31T10:13:46.517Z,26.17
2019-03-31T10:16:15.387Z,25.68
2019-03-31T10:18:44.116Z,25.02
2019-03-31T10:21:12.494Z,24.02
2019-03-31T10:23:40.967Z,25.37
2019-03-31T10:26:09.227Z,24.60
2019-03-31T10:31:55.218Z,27.48
2019-03-31T10:34:23.642Z,28.02
2019-03-31T10:36:51.922Z,27.42
2019-03-31T10:39:20.660Z,25.77
2019-03-31T10:41:49.768Z,26.55
2019-03-31T10:44:18.620Z,24.75
2019-03-31T10:46:47.409Z,28.62
2019-03-31T10:49:15.835Z,25.30
2019-03-31T10:51:44.161Z,25.20
2019-03-31T10:54:12.512Z,28.35
2019-03-31T10:56:40.903Z,26.87
2019-03-31T10:59:09.442Z,24.45
2019-03-31T11:01:37.971Z,22.55
2019-03-31T11:04:06.356Z,26.45
2019-03-31T11:06:35.320Z,25.23
2019-03-31T11:09:06.403Z,30.55
2019-03-31T11:11:35.264Z,25.27
2019-03-31T11:14:03.675Z,27.00
2019-03-31T11:16:32.082Z,26.45
2019-03-31T11:19:00.383Z,21.82
2019-03-31T11:21:33.914Z,20.75
2019-03-31T11:24:02.380Z,21.02
2019-03-31T11:26:30.813Z,22.45
2019-03-31T11:28:59.250Z,20.60
2019-03-31T11:31:27.620Z,17.87
2019-03-31T11:33:55.910Z,20.37
2019-03-31T11:36:24.266Z,21.35
2019-03-31T11:38:52.646Z,22.27
2019-03-31T11:41:21.005Z,21.80
2019-03-31T11:43:49.298Z,19.55
2019-03-31T11:46:18.020Z,19.67
2019-03-31T11:48:46.397Z,18.50
2019-03-31T11:51:14.764Z,19.12
2019-03-31T11:53:43.119Z,17.45
2019-03-31T11:56:11.409Z,16.40
2019-03-31T11:58:39.842Z,19.23
2019-03-31T12:01:10.048Z,15.55
2019-03-31T12:03:38.462Z,16.70
2019-03-31T12:06:06.899Z,18.60
2019-03-31T12:08:35.235Z,16.17
2019-03-31T12:11:03.575Z,19.45
2019-03-31T12:13:31.918Z,21.95
2019-03-31T12:16:00.221Z,17.02
2019-03-31T12:18:28.529Z,16.75
2019-03-31T12:20:56.807Z,15.80
2019-03-31T12:23:25.138Z,14.65
2019-03-31T12:25:53.455Z,19.15
2019-03-31T12:28:21.822Z,19.62
2019-03-31T12:30:50.179Z,17.48
2019-03-31T12:33:20.790Z,16.75
2019-03-31T12:35:49.179Z,14.58
2019-03-31T12:38:17.651Z,17.95
2019-03-31T12:40:45.920Z,17.52
2019-03-31T12:43:15.478Z,14.80
2019-03-31T12:45:43.865Z,15.05
2019-03-31T12:48:12.208Z,12.63
2019-03-31T12:50:40.531Z,16.20
2019-03-31T12:53:08.895Z,12.75
2019-03-31T12:55:37.334Z,12.30
2019-03-31T12:58:05.690Z,12.50
2019-03-31T13:00:34.004Z,13.03
2019-03-31T13:03:02.363Z,14.95
2019-03-31T13:05:30.747Z,14.78
2019-03-31T13:07:59.174Z,13.70
2019-03-31T13:10:27.511Z,12.35
2019-03-31T13:12:55.818Z,11.08
2019-03-31T13:15:24.273Z,11.90
2019-03-31T13:17:52.577Z,11.53
2019-03-31T13:20:20.958Z,13.87
2019-03-31T13:22:49.341Z,11.83
2019-03-31T13:25:17.670Z,10.63
2019-03-31T13:27:46.060Z,10.55
2019-03-31T13:30:14.360Z,10.82
2019-03-31T13:32:42.639Z,12.58
2019-03-31T13:35:10.967Z,11.12
2019-03-31T13:37:39.318Z,11.20
2019-03-31T13:40:07.714Z,12.28
2019-03-31T13:42:36.079Z,12.00
2019-03-31T13:45:04.628Z,11.05
2019-03-31T13:47:32.960Z,12.10
2019-03-31T13:50:01.325Z,11.73
2019-03-31T13:52:29.616Z,12.20
2019-03-31T13:54:57.902Z,11.75
2019-03-31T13:57:26.562Z,11.10
2019-03-31T13:59:55.655Z,12.45
2019-03-31T14:02:27.252Z,12.50
2019-03-31T14:04:55.554Z,13.88
2019-03-31T14:07:23.926Z,15.85
2019-03-31T14:09:52.210Z,13.00
2019-03-31T14:12:20.643Z,12.73
2019-03-31T14:14:49.011Z,14.25
2019-03-31T14:19:54.205Z,14.25
2019-03-31T14:22:24.030Z,14.65
2019-03-31T14:24:53.787Z,12.70
2019-03-31T14:27:23.651Z,13.75
2019-03-31T14:29:53.470Z,14.78
2019-03-31T14:32:23.374Z,14.95
2019-03-31T14:34:53.259Z,13.28
2019-03-31T14:37:23.095Z,17.77
2019-03-31T14:39:53.009Z,16.95
2019-03-31T14:42:22.905Z,17.73
2019-03-31T14:44:52.720Z,16.75
2019-03-31T14:47:22.675Z,15.00
2019-03-31T14:49:52.668Z,12.60
2019-03-31T14:52:27.561Z,13.15
2019-03-31T14:54:55.861Z,13.05
2019-03-31T14:57:25.654Z,15.70
2019-03-31T14:59:55.577Z,13.35
2019-03-31T15:02:25.415Z,16.17
2019-03-31T15:04:55.244Z,18.90
2019-03-31T15:07:25.154Z,15.55
2019-03-31T15:09:55.047Z,13.40
2019-03-31T15:12:24.895Z,13.53
2019-03-31T15:14:54.778Z,13.48
2019-03-31T15:17:24.628Z,12.37
2019-03-31T15:19:54.438Z,13.58
2019-03-31T15:22:24.347Z,11.85
2019-03-31T15:24:54.211Z,12.47
2019-03-31T15:27:24.078Z,12.63
2019-03-31T15:29:53.936Z,10.45
2019-03-31T15:32:23.774Z,12.75
2019-03-31T15:34:53.641Z,11.33
2019-03-31T15:37:23.474Z,11.25
2019-03-31T15:39:53.339Z,12.10
2019-03-31T15:42:23.238Z,10.43
2019-03-31T15:44:53.030Z,14.20
2019-03-31T15:47:23.012Z,10.90
2019-03-31T15:49:52.870Z,12.18
2019-03-31T15:52:22.721Z,13.72
2019-03-31T15:54:52.600Z,11.08
2019-03-31T15:57:22.462Z,11.95
2019-03-31T15:59:50.932Z,10.48
2019-03-31T16:02:22.366Z,11.50
2019-03-31T16:04:52.214Z,12.50
2019-03-31T16:07:22.084Z,13.45
2019-03-31T16:09:53.870Z,11.28
2019-03-31T16:12:23.181Z,12.17
2019-03-31T16:14:52.458Z,11.28
2019-03-31T16:17:21.800Z,10.00
2019-03-31T16:19:51.120Z,9.40
2019-03-31T16:22:20.423Z,10.35
2019-03-31T16:24:51.909Z,11.70
2019-03-31T16:27:21.314Z,10.32
2019-03-31T16:29:50.634Z,10.53
2019-03-31T16:32:19.960Z,10.00
2019-03-31T16:34:49.283Z,10.68
2019-03-31T16:37:18.621Z,11.40
2019-03-31T16:39:47.906Z,10.68
2019-03-31T16:42:17.224Z,11.03
2019-03-31T16:44:57.651Z,9.55
2019-03-31T16:47:17.591Z,9.28
2019-03-31T16:49:46.910Z,10.93
2019-03-31T16:52:16.183Z,10.10
2019-03-31T16:54:45.496Z,13.18
2019-03-31T16:57:14.974Z,9.35
2019-03-31T16:59:44.517Z,10.72
2019-03-31T17:02:13.797Z,8.65
2019-03-31T17:04:43.161Z,7.20
2019-03-31T17:07:12.526Z,8.98
2019-03-31T17:09:51.489Z,9.43
2019-03-31T17:12:12.899Z,10.45
2019-03-31T17:14:42.222Z,8.73
2019-03-31T17:17:11.565Z,9.78
2019-03-31T17:19:40.898Z,12.35
2019-03-31T17:22:10.191Z,9.73
2019-03-31T17:24:39.620Z,11.18
2019-03-31T17:27:14.130Z,9.55
2019-03-31T17:29:50.400Z,14.47
2019-03-31T17:32:20.168Z,12.00
2019-03-31T17:34:50.684Z,10.58
2019-03-31T17:37:19.975Z,12.65
2019-03-31T17:39:49.370Z,13.15
2019-03-31T17:42:18.679Z,9.80
2019-03-31T17:44:48.075Z,13.83
2019-03-31T17:47:17.397Z,9.98
2019-03-31T17:49:46.833Z,12.03
2019-03-31T17:52:16.272Z,15.15
2019-03-31T17:54:45.671Z,11.85
2019-03-31T17:57:15.010Z,11.78
2019-03-31T17:59:44.326Z,11.55
2019-03-31T18:02:13.666Z,10.00
2019-03-31T18:04:42.999Z,12.00
2019-03-31T18:07:12.313Z,13.68
2019-03-31T18:09:41.752Z,14.10
2019-03-31T18:12:11.052Z,12.07
2019-03-31T18:14:40.344Z,14.10
2019-03-31T18:17:09.681Z,14.80
2019-03-31T18:19:40.111Z,12.98
2019-03-31T18:22:16.246Z,16.73
2019-03-31T18:24:40.651Z,15.58
2019-03-31T18:27:09.997Z,11.57
2019-03-31T18:29:39.283Z,13.32
2019-03-31T18:32:08.617Z,17.67
2019-03-31T18:34:37.973Z,12.15
2019-03-31T18:37:07.572Z,11.10
2019-03-31T18:39:36.971Z,12.98
2019-03-31T18:42:06.383Z,13.60
2019-03-31T18:44:40.399Z,12.63
2019-03-31T18:47:09.854Z,12.88
2019-03-31T18:49:39.227Z,12.80
2019-03-31T18:52:08.742Z,11.38
2019-03-31T18:54:46.359Z,14.78
2019-03-31T18:57:34.747Z,13.47
2019-03-31T19:00:22.135Z,16.23
2019-03-31T19:03:10.613Z,14.25
2019-03-31T19:05:58.020Z,10.93
2019-03-31T19:08:59.945Z,10.53
2019-03-31T19:11:54.544Z,14.15
2019-03-31T19:14:36.996Z,14.07
2019-03-31T19:17:29.212Z,13.78
2019-03-31T19:20:50.317Z,9.80
2019-03-31T19:23:46.855Z,11.15
2019-03-31T19:26:51.391Z,11.97
2019-03-31T19:29:44.577Z,14.20
2019-03-31T19:33:01.833Z,11.60
2019-03-31T19:39:24.148Z,10.03
2019-03-31T19:42:36.848Z,12.88
2019-03-31T19:45:22.794Z,13.95
2019-03-31T19:48:32.814Z,12.33
2019-03-31T19:52:08.773Z,9.05
2019-03-31T19:59:05.255Z,11.90
2019-03-31T20:01:45.560Z,10.95
2019-03-31T20:04:35.949Z,9.95
2019-03-31T20:08:00.410Z,10.00
2019-03-31T20:21:34.819Z,12.20
2019-03-31T20:24:36.720Z,8.38
2019-03-31T20:30:55.115Z,12.03
2019-03-31T20:34:10.518Z,9.25
2019-03-31T20:37:07.098Z,9.25
2019-03-31T20:40:32.119Z,12.53
2019-03-31T20:43:23.233Z,9.65
2019-03-31T20:45:59.283Z,12.65
2019-03-31T20:48:35.865Z,10.23
2019-03-31T20:51:07.209Z,11.50
2019-03-31T20:53:41.423Z,12.00
2019-03-31T20:56:15.445Z,9.68
2019-03-31T21:02:29.113Z,8.88
2019-03-31T21:04:58.648Z,10.50
2019-03-31T21:07:46.133Z,10.88
2019-03-31T21:14:20.226Z,12.03
2019-03-31T21:17:37.975Z,16.95
2019-03-31T21:24:21.549Z,9.53
2019-03-31T21:29:24.608Z,8.53
2019-03-31T21:30:20.398Z,14.30
2019-03-31T21:32:49.831Z,13.25
2019-03-31T21:35:19.255Z,8.97
2019-03-31T21:37:48.557Z,10.63
2019-03-31T21:40:17.925Z,10.73
2019-03-31T21:42:47.553Z,11.38
2019-03-31T21:45:17.214Z,11.90
2019-03-31T21:47:46.640Z,14.90
2019-03-31T21:50:16.126Z,11.63
2019-03-31T21:52:45.572Z,12.25
2019-03-31T21:55:14.963Z,14.90
2019-03-31T21:57:44.398Z,10.48
2019-03-31T22:00:14.681Z,11.47
2019-03-31T22:02:44.097Z,11.15
2019-03-31T22:05:13.598Z,12.85
2019-03-31T22:07:43.083Z,11.83
2019-03-31T22:10:12.728Z,12.63
2019-03-31T22:12:42.268Z,12.03
2019-03-31T22:15:16.045Z,11.55
2019-03-31T22:17:45.472Z,10.28
2019-03-31T22:20:16.011Z,11.67
2019-03-31T22:22:45.327Z,9.35
2019-03-31T22:25:14.711Z,10.90
2019-03-31T22:27:44.395Z,13.55
2019-03-31T22:30:13.832Z,12.23
2019-03-31T22:32:43.365Z,11.95
2019-03-31T22:35:12.798Z,9.63
2019-03-31T22:37:42.180Z,13.43
2019-03-31T22:40:11.609Z,14.58
2019-03-31T22:42:41.042Z,13.50
2019-03-31T22:45:10.583Z,13.62
2019-03-31T22:47:40.064Z,12.68
2019-03-31T22:50:09.576Z,9.33
2019-03-31T22:52:38.932Z,11.33
2019-03-31T22:55:08.366Z,11.20
2019-03-31T22:57:37.773Z,8.50
2019-03-31T23:00:09.466Z,9.38
2019-03-31T23:02:38.844Z,13.93
2019-03-31T23:05:08.371Z,11.10
2019-03-31T23:07:38.046Z,12.78
2019-03-31T23:10:07.896Z,9.33
2019-03-31T23:12:37.247Z,13.85
2019-03-31T23:15:06.782Z,7.67
2019-03-31T23:17:36.304Z,9.90
2019-03-31T23:20:05.732Z,13.08
2019-03-31T23:22:35.141Z,14.05
2019-03-31T23:25:04.841Z,10.88
2019-03-31T23:27:34.759Z,9.95
2019-03-31T23:30:09.799Z,6.62
2019-03-31T23:32:39.347Z,13.20
2019-03-31T23:35:08.903Z,11.33
2019-03-31T23:37:38.296Z,12.70
2019-03-31T23:40:07.786Z,10.45
2019-03-31T23:42:37.127Z,11.73
2019-03-31T23:45:06.555Z,12.37
2019-03-31T23:47:35.991Z,11.57
2019-03-31T23:50:05.659Z,13.28
2019-03-31T23:52:35.004Z,9.98
2019-03-31T23:55:04.340Z,11.45
2019-03-31T23:57:40.136Z,10.78
